Terminal Aerodrome Forecast
Issued by NWS Buffalo, NY

Home | Current Version | Previous Version | Text Only | Print | Product List | Glossary On
Versions: 1 2 3 4 5 6 7 8 9 10 11 12 13 14 15 16 17 18 19 20 21 22 23 24 25 26 27 28
000
FTUS41 KBUF 270500
TAFART
TAF
KART 270530Z 2706/2806 21007KT P6SM BKN035
     FM271200 21005KT P6SM SCT110 BKN250
     FM271600 20009KT P6SM BKN200 BKN250
     FM271900 20008KT P6SM BKN035 OVC250
     FM280000 18011KT P6SM VCSH BKN035 BKN070
     FM280200 19013G20KT 6SM -SHRA OVC045=

USA.gov is the U.S. government's official web portal to all federal, state and local government web resources and services.